LFJLEDDR

Guest
Details From LFJL - Metz-Nancy-Lorraine
To EDDR - Saarbrucken
Flight Number -
Tags generated
Created
Modified
Stats Distance 37 nm / 69 km
Max Altitude 800 ft / 244 m
Waypoints 3
Social Downloads 0
Likes 0
Share VATSIM

Download

Looking for another format? Having issues loading an existing format? Contact us
Advertisement - Login to hide

Notes

Basic altitude profile: - Ascent Rate: 2500ft/min - Ascent Speed: 250kts - Cruise Altitude: 35000ft - Cruise Speed: 420kts - Descent Rate: 1500ft/min - Descent Speed: 250kts Options: - Use NATs: yes - Use PACOTS: yes - Use low airways: yes - Use high airways: yes

Route

LFJL MAKOT EDDR

ID Type Via Altitude Latitude Longitude Leg Dist Tot Dist Heading (true) Name
O LFJL APT - 0 ft / 0 m 48.98065˚ 6.24947˚ - 0 nm - Metz-Nancy-Lorraine
MAKOT FIX - 800 ft / 244 m 49.17222˚ 7.03944˚ 33 nm 33 nm 69° / 70° -
O EDDR APT - 0 ft / 0 m 49.21534˚ 7.11261˚ 3 nm 37 nm 48° / 48° Saarbrucken

Altitude Profile

Advertisement - Login to hide

LFJL

Details ICAO LFJL (ETZ)
Name Metz-Nancy-Lorraine
Region France
Timezone Europe/Paris (UTC+1.0)
Stats Elevation 870 ft / 265 m (AMSL)
Location 48.980645° 6.249473°
Runways 1
Magnetic Variation 1.719° E

METAR

LFJL 161300Z AUTO 29006KT 9999 FEW012 BKN017 BKN022 04/01 Q1014 TEMPO 4000 -SHRA BKN012

Decode

TAF

TAF LFJL 161100Z 1612/1712 30008KT 9999 BKN020 OVC030 TEMPO 1612/1615 4000 -SHRA BKN012 TEMPO 1615/1621 3000 -SHRASN BKN008 TEMPO 1621/1703 BKN008 TEMPO 1703/1709 BKN003 TEMPO 1709/1712 BKN012

Decode

Departure Runways

ID Width Length Bearing (true) Bearing (mag) Surface Threshold Offset Overrun Length
04 148 ft / 45 m 10,016 ft / 3,053 m 39.13° 37.41° Asphalt 656 ft / 200 m 0 ft / 0 m
22 148 ft / 45 m 10,016 ft / 3,053 m 219.15° 217.43° Asphalt 0 ft / 0 m 0 ft / 0 m

EDDR

Details ICAO EDDR (SCN)
Name Saarbrucken
Region Germany - Civil
Timezone Europe/Berlin (UTC+1.0)
Stats Elevation 1,057 ft / 322 m (AMSL)
Location 49.215343° 7.112610°
Runways 2
Magnetic Variation 1.954° E

METAR

EDDR 161250Z 28008KT 9999 FEW007 BKN012 BKN035 03/00 Q1012 NOSIG

Decode

TAF

TAF EDDR 161100Z 1612/1712 27008KT 9999 SCT015 BKN025 TEMPO 1612/1621 4000 -SHSNRA BKN008 BKN015TCU PROB30 TEMPO 1621/1709 2000 -SHSN BKN005 SCT012TCU

Decode

Destination Runways

ID Width Length Bearing (true) Bearing (mag) Surface Threshold Offset Overrun Length
09 148 ft / 45 m 6,450 ft / 1,966 m 87.38° 85.43° Asphalt 85 ft / 26 m 0 ft / 0 m
09L 164 ft / 50 m 1,784 ft / 544 m 87.10° 85.15° Grass 0 ft / 0 m 0 ft / 0 m
27 148 ft / 45 m 6,450 ft / 1,966 m 267.40° 265.45° Asphalt 0 ft / 0 m 0 ft / 0 m
27R 164 ft / 50 m 1,784 ft / 544 m 267.10° 265.15° Grass 0 ft / 0 m 0 ft / 0 m

Approach Navaids

Runway Type Ident Frequency Range Bearing (true) Bearing (mag) Slope Elevation
27 Localiser DSB 108.70 MHz 25 nm / 46 km 267.37° 265.42° - 1,021 ft / 311 m (AMSL)
27 Glidescope DSB 108.70 MHz 10 nm / 19 km 267.39° 265.44° 3.00° 1,056 ft / 322 m (AMSL)